sensor_id;sensor_type;location;lat;lon;timestamp;pressure;altitude;pressure_sealevel;temperature;humidity
24868;BME280;12941;48.698;9.310;2024-01-06T00:00:20;96712.09999999999;;;12.54;60.546
24868;BME280;12941;48.698;9.310;2024-01-06T00:01:20;96701.9;;;12.53;60.479
24868;BME280;12941;48.698;9.310;2024-01-06T00:02:25;96702;;;12.51;60.575
24868;BME280;12941;48.698;9.310;2024-01-06T00:03:25;96702;;;12.51;60.629
24868;BME280;12941;48.698;9.310;2024-01-06T00:04:30;96704.7;;;12.5;60.638
24868;BME280;12941;48.698;9.310;2024-01-06T00:05:35;96707.3;;;12.5;60.41
24868;BME280;12941;48.698;9.310;2024-01-06T00:06:35;96704.7;;;12.5;60.204
24868;BME280;12941;48.698;9.310;2024-01-06T00:07:40;96703.9;;;12.49;60.215
24868;BME280;12941;48.698;9.310;2024-01-06T00:08:45;96707.3;;;12.5;60.226
24868;BME280;12941;48.698;9.310;2024-01-06T00:09:51;96710.7;;;12.5;60.043
24868;BME280;12941;48.698;9.310;2024-01-06T00:10:55;96708.2;;;12.49;59.976
24868;BME280;12941;48.698;9.310;2024-01-06T00:11:55;96713.4;;;12.49;59.781
24868;BME280;12941;48.698;9.310;2024-01-06T00:13:01;96710.90000000001;;;12.47;59.985
24868;BME280;12941;48.698;9.310;2024-01-06T00:14:05;96718.8;;;12.45;60.123
24868;BME280;12941;48.698;9.310;2024-01-06T00:15:11;96712.59999999999;;;12.48;60.192
24868;BME280;12941;48.698;9.310;2024-01-06T00:16:16;96720.4;;;12.47;60.244
24868;BME280;12941;48.698;9.310;2024-01-06T00:17:15;96708.5;;;12.45;60.199
24868;BME280;12941;48.698;9.310;2024-01-06T00:18:21;96716.2;;;12.45;60.123
24868;BME280;12941;48.698;9.310;2024-01-06T00:19:25;96717.1;;;12.44;60.068
24868;BME280;12941;48.698;9.310;2024-01-06T00:20:25;96713.8;;;12.44;60.056
24868;BME280;12941;48.698;9.310;2024-01-06T00:21:31;96712.09999999999;;;12.43;60.152
24868;BME280;12941;48.698;9.310;2024-01-06T00:22:35;96718.1;;;12.43;60.089
24868;BME280;12941;48.698;9.310;2024-01-06T00:23:35;96713.9;;;12.42;60.065
24868;BME280;12941;48.698;9.310;2024-01-06T00:24:41;96720;;;12.41;60.129
24868;BME280;12941;48.698;9.310;2024-01-06T00:25:41;96715.7;;;12.4;59.889
24868;BME280;12941;48.698;9.310;2024-01-06T00:26:45;96721.7;;;12.41;59.89
24868;BME280;12941;48.698;9.310;2024-01-06T00:27:45;96720.1;;;12.4;59.813
24868;BME280;12941;48.698;9.310;2024-01-06T00:28:45;96718.6;;;12.37;59.551
24868;BME280;12941;48.698;9.310;2024-01-06T00:29:45;96718.4;;;12.39;59.552
24868;BME280;12941;48.698;9.310;2024-01-06T00:30:51;96727;;;12.39;59.64
24868;BME280;12941;48.698;9.310;2024-01-06T00:31:55;96731.2;;;12.4;59.585
24868;BME280;12941;48.698;9.310;2024-01-06T00:33:01;96717.6;;;12.38;59.485
24868;BME280;12941;48.698;9.310;2024-01-06T00:34:01;96726.3;;;12.37;59.572
24868;BME280;12941;48.698;9.310;2024-01-06T00:35:06;96727.9;;;12.38;59.421
24868;BME280;12941;48.698;9.310;2024-01-06T00:36:11;96727.9;;;12.38;59.236
24868;BME280;12941;48.698;9.310;2024-01-06T00:37:15;96730.6;;;12.37;59.257
24868;BME280;12941;48.698;9.310;2024-01-06T00:38:15;96723.7;;;12.37;59.302
24868;BME280;12941;48.698;9.310;2024-01-06T00:39:15;96729.7;;;12.38;59.377
24868;BME280;12941;48.698;9.310;2024-01-06T00:40:21;96727.09999999999;;;12.38;59.529
24868;BME280;12941;48.698;9.310;2024-01-06T00:41:21;96721.1;;;12.37;59.637
24868;BME280;12941;48.698;9.310;2024-01-06T00:42:25;96716.9;;;12.36;59.656
24868;BME280;12941;48.698;9.310;2024-01-06T00:43:25;96726.5;;;12.34;59.34
24868;BME280;12941;48.698;9.310;2024-01-06T00:44:31;96727.3;;;12.35;59.276
24868;BME280;12941;48.698;9.310;2024-01-06T00:45:31;96726.5;;;12.34;59.415
24868;BME280;12941;48.698;9.310;2024-01-06T00:46:35;96730.9;;;12.34;59.565
24868;BME280;12941;48.698;9.310;2024-01-06T00:47:41;96735.2;;;12.33;59.479
24868;BME280;12941;48.698;9.310;2024-01-06T00:48:41;96732.6;;;12.33;59.327
24868;BME280;12941;48.698;9.310;2024-01-06T00:49:41;96720.7;;;12.32;59.045
24868;BME280;12941;48.698;9.310;2024-01-06T00:50:45;96724.1;;;12.33;58.971
24868;BME280;12941;48.698;9.310;2024-01-06T00:51:45;96726;;;12.31;59.163
24868;BME280;12941;48.698;9.310;2024-01-06T00:52:51;96731.1;;;12.31;59.509
24868;BME280;12941;48.698;9.310;2024-01-06T00:53:55;96729.6;;;12.28;59.765
24868;BME280;12941;48.698;9.310;2024-01-06T00:54:56;96728.9;;;12.26;59.946
24868;BME280;12941;48.698;9.310;2024-01-06T00:56:01;96725.5;;;12.26;60.031
24868;BME280;12941;48.698;9.310;2024-01-06T00:57:01;96727.3;;;12.25;60.02
24868;BME280;12941;48.698;9.310;2024-01-06T00:58:05;96733.5;;;12.23;60.113
24868;BME280;12941;48.698;9.310;2024-01-06T00:59:05;96730.2;;;12.21;60.045
24868;BME280;12941;48.698;9.310;2024-01-06T01:00:11;96733.7;;;12.2;60.283
24868;BME280;12941;48.698;9.310;2024-01-06T01:01:15;96727.8;;;12.19;60.347
24868;BME280;12941;48.698;9.310;2024-01-06T01:02:21;96733.8;;;12.18;60.432
24868;BME280;12941;48.698;9.310;2024-01-06T01:03:21;96737.2;;;12.19;60.627
24868;BME280;12941;48.698;9.310;2024-01-06T01:04:25;96736.40000000001;;;12.18;60.713
24868;BME280;12941;48.698;9.310;2024-01-06T01:05:25;96732.1;;;12.19;60.768
24868;BME280;12941;48.698;9.310;2024-01-06T01:06:26;96734.5;;;12.2;60.792
24868;BME280;12941;48.698;9.310;2024-01-06T01:07:25;96730.3;;;12.19;60.639
24868;BME280;12941;48.698;9.310;2024-01-06T01:08:31;96727.8;;;12.19;60.314
24868;BME280;12941;48.698;9.310;2024-01-06T01:09:35;96737.2;;;12.19;60.151
24868;BME280;12941;48.698;9.310;2024-01-06T01:10:41;96735.5;;;12.19;60.163
24868;BME280;12941;48.698;9.310;2024-01-06T01:11:41;96739.70000000001;;;12.2;60.132
24868;BME280;12941;48.698;9.310;2024-01-06T01:12:41;96738.9;;;12.2;60.057
24868;BME280;12941;48.698;9.310;2024-01-06T01:13:45;96738;;;12.19;59.903
24868;BME280;12941;48.698;9.310;2024-01-06T01:14:46;96739;;;12.18;59.805
24868;BME280;12941;48.698;9.310;2024-01-06T01:15:51;96741.5;;;12.18;59.74
24868;BME280;12941;48.698;9.310;2024-01-06T01:16:56;96735.5;;;12.19;59.633
24868;BME280;12941;48.698;9.310;2024-01-06T01:18:01;96742.4;;;12.19;59.513
24868;BME280;12941;48.698;9.310;2024-01-06T01:19:01;96740.59999999999;;;12.19;59.232
24868;BME280;12941;48.698;9.310;2024-01-06T01:20:06;96747.5;;;12.19;59.167
24868;BME280;12941;48.698;9.310;2024-01-06T01:21:11;96739.9;;;12.17;59.046
24868;BME280;12941;48.698;9.310;2024-01-06T01:22:16;96743.4;;;12.16;58.98
24868;BME280;12941;48.698;9.310;2024-01-06T01:23:21;96740.8;;;12.16;58.926
24868;BME280;12941;48.698;9.310;2024-01-06T01:24:21;96741.8;;;12.15;58.784
24868;BME280;12941;48.698;9.310;2024-01-06T01:25:26;96743.4;;;12.16;58.926
24868;BME280;12941;48.698;9.310;2024-01-06T01:26:26;96746;;;12.16;59.023
24868;BME280;12941;48.698;9.310;2024-01-06T01:27:31;96745.2;;;12.16;58.914
24868;BME280;12941;48.698;9.310;2024-01-06T01:28:36;96752.09999999999;;;12.15;59.055
24868;BME280;12941;48.698;9.310;2024-01-06T01:29:36;96759.90000000001;;;12.14;59.085
24868;BME280;12941;48.698;9.310;2024-01-06T01:30:41;96752.3;;;12.12;59.082
24868;BME280;12941;48.698;9.310;2024-01-06T01:31:46;96750.7;;;12.11;59.318
24868;BME280;12941;48.698;9.310;2024-01-06T01:32:46;96755;;;12.1;59.329
24868;BME280;12941;48.698;9.310;2024-01-06T01:33:51;96750.7;;;12.11;59.222
24868;BME280;12941;48.698;9.310;2024-01-06T01:34:56;96764.4;;;12.1;59.036
24868;BME280;12941;48.698;9.310;2024-01-06T01:36:01;96766.09999999999;;;12.11;59.103
24868;BME280;12941;48.698;9.310;2024-01-06T01:37:01;96763.4;;;12.13;59.019
24868;BME280;12941;48.698;9.310;2024-01-06T01:38:06;96760.90000000001;;;12.11;59.048
24868;BME280;12941;48.698;9.310;2024-01-06T01:39:06;96755.8;;;12.11;59.146
24868;BME280;12941;48.698;9.310;2024-01-06T01:40:11;96766.09999999999;;;12.11;58.896
24868;BME280;12941;48.698;9.310;2024-01-06T01:41:11;96765.3;;;12.1;58.8
24868;BME280;12941;48.698;9.310;2024-01-06T01:42:11;96767.8;;;12.1;58.843
24868;BME280;12941;48.698;9.310;2024-01-06T01:43:16;96763.59999999999;;;12.09;59.004
24868;BME280;12941;48.698;9.310;2024-01-06T01:44:16;96770.5;;;12.09;59.338
24868;BME280;12941;48.698;9.310;2024-01-06T01:45:16;96762.8;;;12.09;59.057
24868;BME280;12941;48.698;9.310;2024-01-06T01:46:16;96768.8;;;12.09;58.853
24868;BME280;12941;48.698;9.310;2024-01-06T01:47:16;96770.5;;;12.09;58.959
24868;BME280;12941;48.698;9.310;2024-01-06T01:48:23;96770.5;;;12.09;58.938
24868;BME280;12941;48.698;9.310;2024-01-06T01:49:26;96769.8;;;12.07;59
24868;BME280;12941;48.698;9.310;2024-01-06T01:50:26;96765.5;;;12.07;58.969
24868;BME280;12941;48.698;9.310;2024-01-06T01:51:32;96766.3;;;12.08;58.979
24868;BME280;12941;48.698;9.310;2024-01-06T01:52:31;96772.29999999999;;;12.08;59.056
24868;BME280;12941;48.698;9.310;2024-01-06T01:53:36;96775;;;12.07;59.075
24868;BME280;12941;48.698;9.310;2024-01-06T01:54:41;96772.40000000001;;;12.07;58.708
24868;BME280;12941;48.698;9.310;2024-01-06T01:55:46;96773.29999999999;;;12.06;58.707
24868;BME280;12941;48.698;9.310;2024-01-06T01:56:46;96781.8;;;12.06;58.793
24868;BME280;12941;48.698;9.310;2024-01-06T01:57:46;96778.59999999999;;;12.04;58.802
24868;BME280;12941;48.698;9.310;2024-01-06T01:58:51;96787.90000000001;;;12.05;58.944
24868;BME280;12941;48.698;9.310;2024-01-06T01:59:51;96782;;;12.05;59.105
24868;BME280;12941;48.698;9.310;2024-01-06T02:00:56;96782.9;;;12.04;59.213
24868;BME280;12941;48.698;9.310;2024-01-06T02:01:56;96777.8;;;12.04;59.201
24868;BME280;12941;48.698;9.310;2024-01-06T02:03:01;96782;;;12.05;59.278
24868;BME280;12941;48.698;9.310;2024-01-06T02:04:06;96780.3;;;12.04;59.19
24868;BME280;12941;48.698;9.310;2024-01-06T02:05:06;96785.5;;;12.04;59.245
24868;BME280;12941;48.698;9.310;2024-01-06T02:06:11;96786.3;;;12.04;59.288
24868;BME280;12941;48.698;9.310;2024-01-06T02:07:11;96786.3;;;12.04;59.342
24868;BME280;12941;48.698;9.310;2024-01-06T02:08:16;96784.5;;;12.05;59.116
24868;BME280;12941;48.698;9.310;2024-01-06T02:09:16;96784.5;;;12.05;59.062
24868;BME280;12941;48.698;9.310;2024-01-06T02:10:21;96784.7;;;12.03;59.137
24868;BME280;12941;48.698;9.310;2024-01-06T02:11:26;96785.7;;;12.01;59.176
24868;BME280;12941;48.698;9.310;2024-01-06T02:12:26;96784;;;12.01;59.252
24868;BME280;12941;48.698;9.310;2024-01-06T02:13:32;96784.79999999999;;;12.02;59.327
24868;BME280;12941;48.698;9.310;2024-01-06T02:14:26;96784.90000000001;;;12;59.467
24868;BME280;12941;48.698;9.310;2024-01-06T02:15:31;96779.8;;;12;59.467
24868;BME280;12941;48.698;9.310;2024-01-06T02:16:36;96779;;;12;59.52
24868;BME280;12941;48.698;9.310;2024-01-06T02:17:41;96786.5;;;12.01;59.501
24868;BME280;12941;48.698;9.310;2024-01-06T02:18:46;96785.7;;;12.01;59.382
24868;BME280;12941;48.698;9.310;2024-01-06T02:19:51;96782.3;;;12;59.369
24868;BME280;12941;48.698;9.310;2024-01-06T02:20:51;96784.90000000001;;;12;59.413
24868;BME280;12941;48.698;9.310;2024-01-06T02:21:56;96790.9;;;12.01;59.382
24868;BME280;12941;48.698;9.310;2024-01-06T02:23:01;96789.09999999999;;;12.01;59.425
24868;BME280;12941;48.698;9.310;2024-01-06T02:24:01;96796;;;12.01;59.436
24868;BME280;12941;48.698;9.310;2024-01-06T02:25:01;96804.7;;;12;59.466
24868;BME280;12941;48.698;9.310;2024-01-06T02:26:01;96795.3;;;11.99;59.423
24868;BME280;12941;48.698;9.310;2024-01-06T02:27:01;96796.1;;;11.99;59.455
24868;BME280;12941;48.698;9.310;2024-01-06T02:28:01;96799.5;;;12;59.498
24868;BME280;12941;48.698;9.310;2024-01-06T02:29:06;96799.5;;;12;59.498
24868;BME280;12941;48.698;9.310;2024-01-06T02:30:07;96800.5;;;11.99;59.617
24868;BME280;12941;48.698;9.310;2024-01-06T02:31:11;96803;;;11.99;59.477
24868;BME280;12941;48.698;9.310;2024-01-06T02:32:11;96804.7;;;12;59.336
24868;BME280;12941;48.698;9.310;2024-01-06T02:33:16;96804.8;;;11.98;59.378
24868;BME280;12941;48.698;9.310;2024-01-06T02:34:16;96808.2;;;11.99;59.498
24868;BME280;12941;48.698;9.310;2024-01-06T02:35:21;96811.7;;;11.98;59.474
24868;BME280;12941;48.698;9.310;2024-01-06T02:36:21;96805.7;;;11.97;59.505
24868;BME280;12941;48.698;9.310;2024-01-06T02:37:26;96811.7;;;11.98;59.614
24868;BME280;12941;48.698;9.310;2024-01-06T02:38:31;96809.2;;;11.96;59.526
24868;BME280;12941;48.698;9.310;2024-01-06T02:39:31;96813.5;;;11.96;59.472
24868;BME280;12941;48.698;9.310;2024-01-06T02:40:36;96813.5;;;11.96;59.59
24868;BME280;12941;48.698;9.310;2024-01-06T02:41:36;96808.4;;;11.96;59.472
24868;BME280;12941;48.698;9.310;2024-01-06T02:42:36;96809.3;;;11.95;59.48
24868;BME280;12941;48.698;9.310;2024-01-06T02:43:36;96814.5;;;11.95;59.405
24868;BME280;12941;48.698;9.310;2024-01-06T02:44:41;96811.1;;;11.94;59.395
24868;BME280;12941;48.698;9.310;2024-01-06T02:45:41;96803.4;;;11.94;59.438
24868;BME280;12941;48.698;9.310;2024-01-06T02:46:46;96805.9;;;11.94;59.47
24868;BME280;12941;48.698;9.310;2024-01-06T02:47:51;96805.9;;;11.94;59.352
24868;BME280;12941;48.698;9.310;2024-01-06T02:48:51;96803.5;;;11.93;59.402
24868;BME280;12941;48.698;9.310;2024-01-06T02:49:51;96801.59999999999;;;11.95;59.502
24868;BME280;12941;48.698;9.310;2024-01-06T02:50:51;96805.1;;;11.94;59.522
24868;BME280;12941;48.698;9.310;2024-01-06T02:51:51;96800.9;;;11.93;59.673
24868;BME280;12941;48.698;9.310;2024-01-06T02:52:52;96804.3;;;11.93;59.608
24868;BME280;12941;48.698;9.310;2024-01-06T02:53:56;96801.8;;;11.92;59.38
24868;BME280;12941;48.698;9.310;2024-01-06T02:54:57;96801.8;;;11.92;59.261
24868;BME280;12941;48.698;9.310;2024-01-06T02:56:01;96806.1;;;11.93;59.349
24868;BME280;12941;48.698;9.310;2024-01-06T02:57:01;96807;;;11.92;59.325
24868;BME280;12941;48.698;9.310;2024-01-06T02:58:07;96807;;;11.92;59.348
24868;BME280;12941;48.698;9.310;2024-01-06T02:59:11;96807.9;;;11.91;59.476
24868;BME280;12941;48.698;9.310;2024-01-06T03:00:12;96809.7;;;11.9;59.475
24868;BME280;12941;48.698;9.310;2024-01-06T03:01:17;96806.3;;;11.9;59.583
24868;BME280;12941;48.698;9.310;2024-01-06T03:02:21;96807.9;;;11.91;59.497
24868;BME280;12941;48.698;9.310;2024-01-06T03:03:27;96813.09999999999;;;11.91;59.53
24868;BME280;12941;48.698;9.310;2024-01-06T03:04:27;96809.7;;;11.9;59.398
24868;BME280;12941;48.698;9.310;2024-01-06T03:05:31;96810.5;;;11.91;59.443
24868;BME280;12941;48.698;9.310;2024-01-06T03:06:32;96808.90000000001;;;11.9;59.485
24868;BME280;12941;48.698;9.310;2024-01-06T03:07:37;96809.79999999999;;;11.89;59.45
24868;BME280;12941;48.698;9.310;2024-01-06T03:08:37;96807.2;;;11.89;59.504
24868;BME280;12941;48.698;9.310;2024-01-06T03:09:41;96810.7;;;11.88;59.481
24868;BME280;12941;48.698;9.310;2024-01-06T03:10:47;96808;;;11.89;59.408
24868;BME280;12941;48.698;9.310;2024-01-06T03:11:51;96813.3;;;11.88;59.481
24868;BME280;12941;48.698;9.310;2024-01-06T03:12:52;96812.40000000001;;;11.89;59.45
24868;BME280;12941;48.698;9.310;2024-01-06T03:13:57;96808.2;;;11.88;59.406
24868;BME280;12941;48.698;9.310;2024-01-06T03:14:58;96814.09999999999;;;11.88;59.537
24868;BME280;12941;48.698;9.310;2024-01-06T03:15:57;96814.20000000001;;;11.87;59.609
24868;BME280;12941;48.698;9.310;2024-01-06T03:16:57;96810.79999999999;;;11.86;59.609
24868;BME280;12941;48.698;9.310;2024-01-06T03:18:02;96812.59999999999;;;11.86;59.63
24868;BME280;12941;48.698;9.310;2024-01-06T03:19:01;96811;;;11.85;59.456
24868;BME280;12941;48.698;9.310;2024-01-06T03:20:07;96812.59999999999;;;11.86;59.393
24868;BME280;12941;48.698;9.310;2024-01-06T03:21:16;96811.8;;;11.85;59.371
24868;BME280;12941;48.698;9.310;2024-01-06T03:22:12;96807.5;;;11.86;59.544
24868;BME280;12941;48.698;9.310;2024-01-06T03:23:17;96813.4;;;11.86;59.534
24868;BME280;12941;48.698;9.310;2024-01-06T03:24:22;96810;;;11.86;59.284
24868;BME280;12941;48.698;9.310;2024-01-06T03:25:22;96805.8;;;11.85;59.294
24868;BME280;12941;48.698;9.310;2024-01-06T03:26:21;96808.3;;;11.86;59.318
24868;BME280;12941;48.698;9.310;2024-01-06T03:27:27;96807.5;;;11.86;59.446
24868;BME280;12941;48.698;9.310;2024-01-06T03:28:31;96807.5;;;11.86;59.512
24868;BME280;12941;48.698;9.310;2024-01-06T03:29:32;96805.8;;;11.85;59.478
24868;BME280;12941;48.698;9.310;2024-01-06T03:30:37;96802.3;;;11.86;59.512
24868;BME280;12941;48.698;9.310;2024-01-06T03:31:37;96802.3;;;11.86;59.446
24868;BME280;12941;48.698;9.310;2024-01-06T03:32:42;96797.2;;;11.86;59.479
24868;BME280;12941;48.698;9.310;2024-01-06T03:33:47;96798;;;11.86;59.502
24868;BME280;12941;48.698;9.310;2024-01-06T03:34:52;96799.7;;;11.86;59.5
24868;BME280;12941;48.698;9.310;2024-01-06T03:35:57;96804.1;;;11.85;59.555
24868;BME280;12941;48.698;9.310;2024-01-06T03:36:57;96800.7;;;11.85;59.618
24868;BME280;12941;48.698;9.310;2024-01-06T03:38:02;96799.90000000001;;;11.84;59.629
24868;BME280;12941;48.698;9.310;2024-01-06T03:39:02;96799;;;11.84;59.541
24868;BME280;12941;48.698;9.310;2024-01-06T03:40:02;96795.8;;;11.82;59.646
24868;BME280;12941;48.698;9.310;2024-01-06T03:41:07;96793.2;;;11.82;59.679
24868;BME280;12941;48.698;9.310;2024-01-06T03:42:07;96795.8;;;11.82;59.593
24868;BME280;12941;48.698;9.310;2024-01-06T03:43:12;96791.6;;;11.81;59.635
24868;BME280;12941;48.698;9.310;2024-01-06T03:44:12;96790.9;;;11.78;59.686
24868;BME280;12941;48.698;9.310;2024-01-06T03:45:17;96803.59999999999;;;11.8;59.656
24868;BME280;12941;48.698;9.310;2024-01-06T03:46:22;96798.6;;;11.78;59.664
24868;BME280;12941;48.698;9.310;2024-01-06T03:47:22;96793.6;;;11.77;59.63
24868;BME280;12941;48.698;9.310;2024-01-06T03:48:27;96800.5;;;11.76;59.542
24868;BME280;12941;48.698;9.310;2024-01-06T03:49:32;96791.2;;;11.74;59.518
24868;BME280;12941;48.698;9.310;2024-01-06T03:50:37;96798.1;;;11.73;59.669
24868;BME280;12941;48.698;9.310;2024-01-06T03:51:42;96794.8;;;11.71;59.719
24868;BME280;12941;48.698;9.310;2024-01-06T03:52:47;96802.5;;;11.71;59.773
24868;BME280;12941;48.698;9.310;2024-01-06T03:53:47;96794.9;;;11.7;59.673
24868;BME280;12941;48.698;9.310;2024-01-06T03:54:47;96803.5;;;11.7;59.609
24868;BME280;12941;48.698;9.310;2024-01-06T03:55:47;96802.59999999999;;;11.7;59.555
24868;BME280;12941;48.698;9.310;2024-01-06T03:56:47;96803.5;;;11.7;59.404
24868;BME280;12941;48.698;9.310;2024-01-06T03:57:52;96816.3;;;11.7;59.534
24868;BME280;12941;48.698;9.310;2024-01-06T03:58:52;96804.4;;;11.69;59.479
24868;BME280;12941;48.698;9.310;2024-01-06T03:59:57;96810.5;;;11.68;59.413
24868;BME280;12941;48.698;9.310;2024-01-06T04:00:57;96815.59999999999;;;11.68;59.315
24868;BME280;12941;48.698;9.310;2024-01-06T04:01:57;96807.1;;;11.68;59.336
24868;BME280;12941;48.698;9.310;2024-01-06T04:03:02;96814.8;;;11.68;59.379
24868;BME280;12941;48.698;9.310;2024-01-06T04:04:02;96814.9;;;11.66;59.399
24868;BME280;12941;48.698;9.310;2024-01-06T04:05:07;96814.09999999999;;;11.66;59.431
24868;BME280;12941;48.698;9.310;2024-01-06T04:06:07;96820;;;11.66;59.583
24868;BME280;12941;48.698;9.310;2024-01-06T04:07:12;96811.5;;;11.66;59.722
24868;BME280;12941;48.698;9.310;2024-01-06T04:08:12;96809.1;;;11.64;59.688
24868;BME280;12941;48.698;9.310;2024-01-06T04:09:17;96818.4;;;11.65;59.721
24868;BME280;12941;48.698;9.310;2024-01-06T04:10:22;96818.4;;;11.65;59.678
24868;BME280;12941;48.698;9.310;2024-01-06T04:11:27;96821;;;11.65;59.602
24868;BME280;12941;48.698;9.310;2024-01-06T04:12:32;96815;;;11.65;59.623
24868;BME280;12941;48.698;9.310;2024-01-06T04:13:32;96823.7;;;11.64;59.665
24868;BME280;12941;48.698;9.310;2024-01-06T04:14:37;96816.8;;;11.64;59.774
24868;BME280;12941;48.698;9.310;2024-01-06T04:15:37;96823.7;;;11.64;59.525
24868;BME280;12941;48.698;9.310;2024-01-06T04:16:37;96821.2;;;11.62;59.557
24868;BME280;12941;48.698;9.310;2024-01-06T04:17:42;96832.4;;;11.61;59.737
24868;BME280;12941;48.698;9.310;2024-01-06T04:18:42;96824;;;11.59;59.962
24868;BME280;12941;48.698;9.310;2024-01-06T04:19:47;96824;;;11.59;59.983
24868;BME280;12941;48.698;9.310;2024-01-06T04:20:52;96825.59999999999;;;11.6;60.061
24868;BME280;12941;48.698;9.310;2024-01-06T04:21:57;96817.9;;;11.6;60.146
24868;BME280;12941;48.698;9.310;2024-01-06T04:23:02;96824;;;11.59;60.146
24868;BME280;12941;48.698;9.310;2024-01-06T04:24:07;96824.90000000001;;;11.58;60.23
24868;BME280;12941;48.698;9.310;2024-01-06T04:25:12;96827.59999999999;;;11.57;60.195
24868;BME280;12941;48.698;9.310;2024-01-06T04:26:12;96830.2;;;11.57;60.249
24868;BME280;12941;48.698;9.310;2024-01-06T04:27:17;96828.4;;;11.57;60.283
24868;BME280;12941;48.698;9.310;2024-01-06T04:28:17;96835.40000000001;;;11.55;60.399
24868;BME280;12941;48.698;9.310;2024-01-06T04:29:22;96834.6;;;11.55;60.506
24868;BME280;12941;48.698;9.310;2024-01-06T04:30:27;96827.8;;;11.54;60.45
24868;BME280;12941;48.698;9.310;2024-01-06T04:31:27;96832.2;;;11.53;60.45
24868;BME280;12941;48.698;9.310;2024-01-06T04:32:27;96829.6;;;11.53;60.439
24868;BME280;12941;48.698;9.310;2024-01-06T04:33:27;96838.09999999999;;;11.54;60.245
24868;BME280;12941;48.698;9.310;2024-01-06T04:34:32;96835.7;;;11.52;60.168
24868;BME280;12941;48.698;9.310;2024-01-06T04:35:32;96834.7;;;11.53;60.083
24868;BME280;12941;48.698;9.310;2024-01-06T04:36:37;96833.1;;;11.52;60.05
24868;BME280;12941;48.698;9.310;2024-01-06T04:37:37;96833.8;;;11.54;60.085
24868;BME280;12941;48.698;9.310;2024-01-06T04:38:37;96835.7;;;11.52;60.082
24868;BME280;12941;48.698;9.310;2024-01-06T04:39:42;96830.5;;;11.52;59.975
24868;BME280;12941;48.698;9.310;2024-01-06T04:40:47;96826.3;;;11.51;60.036
24868;BME280;12941;48.698;9.310;2024-01-06T04:41:47;96828;;;11.52;60.082
24868;BME280;12941;48.698;9.310;2024-01-06T04:42:52;96823.8;;;11.51;60.025
24868;BME280;12941;48.698;9.310;2024-01-06T04:43:52;96830.8;;;11.49;60.056
24868;BME280;12941;48.698;9.310;2024-01-06T04:44:52;96827.3;;;11.5;60.166
24868;BME280;12941;48.698;9.310;2024-01-06T04:45:57;96835.1;;;11.49;60.314
24868;BME280;12941;48.698;9.310;2024-01-06T04:47:02;96834.3;;;11.48;60.142
24868;BME280;12941;48.698;9.310;2024-01-06T04:48:02;96833.5;;;11.46;60.138
24868;BME280;12941;48.698;9.310;2024-01-06T04:49:02;96836.1;;;11.46;60.116
24868;BME280;12941;48.698;9.310;2024-01-06T04:50:02;96834.5;;;11.45;60.137
24868;BME280;12941;48.698;9.310;2024-01-06T04:51:07;96831.2;;;11.43;60.21
24868;BME280;12941;48.698;9.310;2024-01-06T04:52:12;96826.09999999999;;;11.43;60.253
24868;BME280;12941;48.698;9.310;2024-01-06T04:53:12;96841.5;;;11.43;60.253
24868;BME280;12941;48.698;9.310;2024-01-06T04:54:17;96840.7;;;11.42;60.284
24868;BME280;12941;48.698;9.310;2024-01-06T04:55:22;96837.40000000001;;;11.4;60.26
24868;BME280;12941;48.698;9.310;2024-01-06T04:56:27;96843.3;;;11.41;60.369
24868;BME280;12941;48.698;9.310;2024-01-06T04:57:32;96846.8;;;11.4;60.409
24868;BME280;12941;48.698;9.310;2024-01-06T04:58:37;96841.7;;;11.4;60.377
24868;BME280;12941;48.698;9.310;2024-01-06T04:59:37;96844.4;;;11.38;60.397
24868;BME280;12941;48.698;9.310;2024-01-06T05:00:42;96839.3;;;11.38;60.473
24868;BME280;12941;48.698;9.310;2024-01-06T05:01:42;96842.6;;;11.39;60.646
24868;BME280;12941;48.698;9.310;2024-01-06T05:02:47;96842;;;11.37;60.72
24868;BME280;12941;48.698;9.310;2024-01-06T05:03:47;96842;;;11.37;60.784
24868;BME280;12941;48.698;9.310;2024-01-06T05:04:52;96847.1;;;11.37;60.763
24868;BME280;12941;48.698;9.310;2024-01-06T05:05:52;96847.90000000001;;;11.37;60.817
24868;BME280;12941;48.698;9.310;2024-01-06T05:06:57;96847.1;;;11.37;60.688
24868;BME280;12941;48.698;9.310;2024-01-06T05:08:02;96847.1;;;11.37;60.688
24868;BME280;12941;48.698;9.310;2024-01-06T05:09:07;96845.5;;;11.36;60.706
24868;BME280;12941;48.698;9.310;2024-01-06T05:10:12;96853.2;;;11.36;60.793
24868;BME280;12941;48.698;9.310;2024-01-06T05:11:17;96849.8;;;11.35;60.685
24868;BME280;12941;48.698;9.310;2024-01-06T05:12:17;96848;;;11.36;60.857
24868;BME280;12941;48.698;9.310;2024-01-06T05:13:17;96846.5;;;11.33;60.973
24868;BME280;12941;48.698;9.310;2024-01-06T05:14:17;96846.6;;;11.32;61.09
24868;BME280;12941;48.698;9.310;2024-01-06T05:15:22;96847.5;;;11.31;61.282
24868;BME280;12941;48.698;9.310;2024-01-06T05:16:22;96848.5;;;11.3;61.411
24868;BME280;12941;48.698;9.310;2024-01-06T05:17:27;96849.40000000001;;;11.29;61.366
24868;BME280;12941;48.698;9.310;2024-01-06T05:18:32;96847.79999999999;;;11.28;61.257
24868;BME280;12941;48.698;9.310;2024-01-06T05:19:32;96847.1;;;11.26;61.211
24868;BME280;12941;48.698;9.310;2024-01-06T05:20:32;96855.7;;;11.25;61.253
24868;BME280;12941;48.698;9.310;2024-01-06T05:21:37;96864.20000000001;;;11.25;61.415
24868;BME280;12941;48.698;9.310;2024-01-06T05:22:42;96863.4;;;11.25;61.469
24868;BME280;12941;48.698;9.310;2024-01-06T05:23:42;96862.59999999999;;;11.24;61.479
24868;BME280;12941;48.698;9.310;2024-01-06T05:24:42;96863.4;;;11.25;61.329
24868;BME280;12941;48.698;9.310;2024-01-06T05:25:42;96863.4;;;11.25;61.188
24868;BME280;12941;48.698;9.310;2024-01-06T05:26:47;96855;;;11.23;61.217
24868;BME280;12941;48.698;9.310;2024-01-06T05:27:47;96856.8;;;11.21;61.397